createdAt,value
2023-05-12T00:00:55.219Z,55.59
2023-05-12T00:01:54.876Z,54.46
2023-05-12T00:02:54.966Z,54.46
2023-05-12T00:03:54.963Z,53.98
2023-05-12T00:04:54.925Z,56.40
2023-05-12T00:05:54.851Z,53.98
2023-05-12T00:06:54.859Z,55.75
2023-05-12T00:07:54.885Z,57.36
2023-05-12T00:08:54.821Z,54.95
2023-05-12T00:09:54.814Z,53.82
2023-05-12T00:10:54.809Z,51.24
2023-05-12T00:11:54.815Z,51.56
2023-05-12T00:12:54.808Z,50.11
2023-05-12T00:13:54.826Z,52.69
2023-05-12T00:14:54.824Z,54.79
2023-05-12T00:15:54.835Z,58.01
2023-05-12T00:16:54.863Z,53.98
2023-05-12T00:17:54.836Z,54.46
2023-05-12T00:18:54.798Z,56.40
2023-05-12T00:19:54.764Z,53.98
2023-05-12T00:20:54.749Z,51.08
2023-05-12T00:21:54.745Z,60.26
2023-05-12T00:22:54.726Z,55.11
2023-05-12T00:23:54.722Z,50.27
2023-05-12T00:24:54.760Z,52.21
2023-05-12T00:25:54.717Z,57.04
2023-05-12T00:26:54.701Z,54.95
2023-05-12T00:27:54.728Z,57.36
2023-05-12T00:28:54.686Z,56.72
2023-05-12T00:29:54.683Z,58.01
2023-05-12T00:30:55.189Z,61.39
2023-05-12T00:31:54.760Z,55.11
2023-05-12T00:32:54.718Z,54.46
2023-05-12T00:33:54.663Z,56.07
2023-05-12T00:34:54.691Z,60.26
2023-05-12T00:35:54.651Z,50.43
2023-05-12T00:36:54.659Z,55.11
2023-05-12T00:37:54.639Z,52.85
2023-05-12T00:38:54.649Z,56.88
2023-05-12T00:39:54.626Z,56.72
2023-05-12T00:40:54.627Z,57.52
2023-05-12T00:41:54.622Z,58.65
2023-05-12T00:42:54.600Z,51.56
2023-05-12T00:43:54.619Z,57.36
2023-05-12T00:44:54.617Z,55.59
2023-05-12T00:45:54.624Z,52.37
2023-05-12T00:46:54.571Z,55.75
2023-05-12T00:47:54.597Z,53.66
2023-05-12T00:48:54.565Z,55.59
2023-05-12T00:49:54.563Z,56.72
2023-05-12T00:50:54.561Z,55.27
2023-05-12T00:51:54.560Z,50.76
2023-05-12T00:52:54.541Z,51.88
2023-05-12T00:53:54.540Z,56.88
2023-05-12T00:54:54.548Z,56.07
2023-05-12T00:55:54.530Z,56.88
2023-05-12T00:56:54.516Z,60.10
2023-05-12T00:57:54.508Z,56.07
2023-05-12T00:58:54.510Z,57.04
2023-05-12T00:59:54.518Z,55.59
2023-05-12T01:00:54.533Z,57.85
2023-05-12T01:01:54.499Z,58.49
2023-05-12T01:02:54.610Z,56.24
2023-05-12T01:03:54.476Z,57.04
2023-05-12T01:04:54.488Z,58.01
2023-05-12T01:05:54.479Z,59.94
2023-05-12T01:06:54.475Z,57.69
2023-05-12T01:07:54.460Z,56.88
2023-05-12T01:08:54.462Z,56.72
2023-05-12T01:09:54.446Z,52.69
2023-05-12T01:10:54.428Z,54.30
2023-05-12T01:11:54.464Z,56.24
2023-05-12T01:12:54.415Z,54.62
2023-05-12T01:13:54.408Z,54.30
2023-05-12T01:14:54.416Z,53.98
2023-05-12T01:15:54.400Z,58.65
2023-05-12T01:16:54.424Z,51.56
2023-05-12T01:17:54.476Z,52.53
2023-05-12T01:18:54.399Z,54.30
2023-05-12T01:19:54.402Z,55.43
2023-05-12T01:20:54.359Z,54.46
2023-05-12T01:21:54.361Z,51.56
2023-05-12T01:22:54.358Z,52.85
2023-05-12T01:23:54.354Z,55.91
2023-05-12T01:24:54.355Z,52.37
2023-05-12T01:25:54.345Z,54.62
2023-05-12T01:26:54.336Z,53.17
2023-05-12T01:27:54.311Z,54.62
2023-05-12T01:28:55.319Z,53.01
2023-05-12T01:29:54.325Z,50.27
2023-05-12T01:30:54.314Z,55.59
2023-05-12T01:31:54.500Z,51.56
2023-05-12T01:32:54.350Z,54.30
2023-05-12T01:33:54.288Z,52.21
2023-05-12T01:34:54.274Z,53.33
2023-05-12T01:35:54.266Z,49.95
2023-05-12T01:36:54.288Z,49.95
2023-05-12T01:37:54.259Z,50.92
2023-05-12T01:38:54.249Z,55.59
2023-05-12T01:39:54.250Z,54.14
2023-05-12T01:40:54.247Z,53.33
2023-05-12T01:41:54.233Z,56.24
2023-05-12T01:42:54.210Z,56.07
2023-05-12T01:43:54.244Z,54.95
2023-05-12T01:44:54.205Z,51.88
2023-05-12T01:45:54.199Z,53.98
2023-05-12T01:46:54.278Z,54.30
2023-05-12T01:47:54.224Z,52.21
2023-05-12T01:48:54.197Z,56.88
2023-05-12T01:49:54.177Z,55.75
2023-05-12T01:50:54.167Z,56.72
2023-05-12T01:51:54.153Z,55.43
2023-05-12T01:52:54.152Z,51.88
2023-05-12T01:53:54.158Z,54.14
2023-05-12T01:54:54.138Z,53.17
2023-05-12T01:55:54.129Z,55.59
2023-05-12T01:56:54.137Z,55.27
2023-05-12T01:57:54.130Z,54.95
2023-05-12T01:58:54.139Z,54.46
2023-05-12T01:59:54.105Z,51.56
2023-05-12T02:00:54.094Z,56.40
2023-05-12T02:01:54.153Z,54.62
2023-05-12T02:02:54.213Z,53.82
2023-05-12T02:03:54.171Z,52.85
2023-05-12T02:04:54.074Z,53.33
2023-05-12T02:05:54.061Z,56.40
2023-05-12T02:06:54.101Z,54.95
2023-05-12T02:07:54.053Z,53.98
2023-05-12T02:08:54.050Z,54.30
2023-05-12T02:09:54.050Z,53.98
2023-05-12T02:10:54.040Z,52.69
2023-05-12T02:11:54.045Z,55.75
2023-05-12T02:12:54.024Z,53.82
2023-05-12T02:13:54.020Z,53.01
2023-05-12T02:14:54.013Z,55.59
2023-05-12T02:15:54.026Z,53.50
2023-05-12T02:16:53.997Z,50.11
2023-05-12T02:17:54.111Z,55.43
2023-05-12T02:18:53.995Z,55.27
2023-05-12T02:19:53.983Z,51.72
2023-05-12T02:20:53.979Z,55.27
2023-05-12T02:21:53.965Z,56.07
2023-05-12T02:22:53.993Z,57.20
2023-05-12T02:23:53.989Z,55.91
2023-05-12T02:24:53.970Z,56.72
2023-05-12T02:25:53.953Z,57.04
2023-05-12T02:26:53.930Z,58.97
2023-05-12T02:27:53.939Z,57.04
2023-05-12T02:28:53.933Z,57.20
2023-05-12T02:29:53.956Z,56.07
2023-05-12T02:30:53.921Z,56.56
2023-05-12T02:31:54.010Z,55.43
2023-05-12T02:32:53.981Z,56.88
2023-05-12T02:33:53.906Z,55.43
2023-05-12T02:34:53.910Z,56.88
2023-05-12T02:35:53.906Z,57.36
2023-05-12T02:36:53.880Z,63.97
2023-05-12T02:37:53.865Z,63.65
2023-05-12T02:38:54.011Z,64.29
2023-05-12T02:39:53.885Z,66.06
2023-05-12T02:40:53.851Z,66.55
2023-05-12T02:41:53.860Z,67.84
2023-05-12T02:42:53.861Z,66.55
2023-05-12T02:43:53.814Z,68.32
2023-05-12T02:44:54.830Z,64.61
2023-05-12T02:45:53.883Z,62.04
2023-05-12T02:46:53.807Z,60.59
2023-05-12T02:47:53.921Z,63.65
2023-05-12T02:48:53.795Z,63.00
2023-05-12T02:49:53.787Z,64.45
2023-05-12T02:50:53.796Z,61.55
2023-05-12T02:51:53.786Z,60.59
2023-05-12T02:52:53.764Z,61.87
2023-05-12T02:53:53.765Z,59.78
2023-05-12T02:54:53.762Z,57.85
2023-05-12T02:55:53.769Z,63.65
2023-05-12T02:56:53.744Z,59.46
2023-05-12T02:57:53.743Z,56.72
2023-05-12T02:58:53.752Z,58.01
2023-05-12T02:59:53.746Z,70.25
2023-05-12T03:01:03.067Z,57.85
2023-05-12T03:01:55.883Z,65.58
2023-05-12T03:02:53.786Z,59.62
2023-05-12T03:03:53.724Z,63.65
2023-05-12T03:04:53.692Z,61.71
2023-05-12T03:05:53.714Z,58.01
2023-05-12T03:06:53.731Z,59.14
2023-05-12T03:07:53.683Z,59.14
2023-05-12T03:08:53.686Z,58.65
2023-05-12T03:09:53.712Z,64.13
2023-05-12T03:10:53.716Z,59.46
2023-05-12T03:11:53.684Z,58.81
2023-05-12T03:12:53.646Z,59.78
2023-05-12T03:13:53.672Z,58.97
2023-05-12T03:14:53.635Z,59.30
2023-05-12T03:15:53.634Z,59.62
2023-05-12T03:16:53.704Z,59.62
2023-05-12T03:17:53.653Z,60.26
2023-05-12T03:18:53.728Z,60.42
2023-05-12T03:19:53.610Z,60.42
2023-05-12T03:20:53.605Z,60.10
2023-05-12T03:21:53.584Z,61.87
2023-05-12T03:22:53.598Z,61.39
2023-05-12T03:23:53.580Z,58.97
2023-05-12T03:24:53.579Z,59.14
2023-05-12T03:25:53.562Z,60.59
2023-05-12T03:26:53.560Z,60.75
2023-05-12T03:27:53.576Z,61.39
2023-05-12T03:28:53.551Z,58.81
2023-05-12T03:29:53.563Z,59.94
2023-05-12T03:30:53.530Z,59.78
2023-05-12T03:31:54.562Z,60.42
2023-05-12T03:32:53.577Z,58.65
2023-05-12T03:33:53.539Z,59.62
2023-05-12T03:34:53.513Z,58.97
2023-05-12T03:35:53.518Z,60.59
2023-05-12T03:36:53.505Z,58.65
2023-05-12T03:37:53.529Z,61.55
2023-05-12T03:38:53.508Z,60.75
2023-05-12T03:39:53.483Z,61.23
2023-05-12T03:40:53.469Z,61.23
2023-05-12T03:41:53.472Z,58.01
2023-05-12T03:42:53.465Z,59.94
2023-05-12T03:43:53.454Z,63.33
2023-05-12T03:44:53.465Z,60.59
2023-05-12T03:45:53.455Z,60.42
2023-05-12T03:46:53.590Z,58.81
2023-05-12T03:47:54.502Z,59.94
2023-05-12T03:48:53.422Z,59.94
2023-05-12T03:49:53.442Z,58.97
2023-05-12T03:50:53.418Z,59.94
2023-05-12T03:51:53.451Z,58.81
2023-05-12T03:52:53.414Z,59.94
2023-05-12T03:53:53.393Z,59.94
2023-05-12T03:54:53.428Z,60.42
2023-05-12T03:55:53.382Z,59.30
2023-05-12T03:56:53.424Z,59.62
2023-05-12T03:57:53.375Z,59.30
2023-05-12T03:58:53.364Z,62.20
2023-05-12T03:59:53.374Z,62.20
2023-05-12T04:00:53.373Z,60.75
2023-05-12T04:01:53.511Z,62.20
2023-05-12T04:02:53.437Z,61.23
2023-05-12T04:03:53.516Z,60.10
2023-05-12T04:04:53.330Z,60.91
2023-05-12T04:05:53.329Z,58.81
2023-05-12T04:06:53.341Z,61.23
2023-05-12T04:07:53.325Z,61.71
2023-05-12T04:08:53.302Z,59.62
2023-05-12T04:09:53.311Z,60.10
2023-05-12T04:10:53.294Z,60.91
2023-05-12T04:11:53.285Z,58.65
2023-05-12T04:12:53.292Z,60.10
2023-05-12T04:13:53.271Z,60.42
2023-05-12T04:14:53.381Z,60.26
2023-05-12T04:15:53.263Z,61.55
2023-05-12T04:16:53.313Z,60.42
2023-05-12T04:17:53.255Z,62.36
2023-05-12T04:18:53.301Z,72.51
2023-05-12T04:19:53.223Z,59.30
2023-05-12T04:20:53.226Z,60.26
2023-05-12T04:21:53.213Z,61.07
2023-05-12T04:22:53.251Z,60.26
2023-05-12T04:23:53.208Z,59.94
2023-05-12T04:24:53.227Z,60.75
2023-05-12T04:25:53.192Z,59.94
2023-05-12T04:26:53.183Z,61.87
2023-05-12T04:27:53.202Z,60.42
2023-05-12T04:28:53.188Z,61.39
2023-05-12T04:29:53.175Z,61.23
2023-05-12T04:30:53.156Z,58.97
2023-05-12T04:31:53.164Z,60.59
2023-05-12T04:32:53.190Z,61.71
2023-05-12T04:33:53.171Z,62.20
2023-05-12T04:34:53.142Z,60.42
2023-05-12T04:35:53.136Z,60.59
2023-05-12T04:36:53.152Z,61.55
2023-05-12T04:37:53.128Z,60.26
2023-05-12T04:38:53.137Z,61.39
2023-05-12T04:39:53.111Z,61.23
2023-05-12T04:40:53.100Z,61.23
2023-05-12T04:41:54.119Z,60.75
2023-05-12T04:42:53.106Z,61.39
2023-05-12T04:44:54.078Z,60.42
2023-05-12T04:45:53.114Z,60.10
2023-05-12T04:46:53.096Z,59.78
2023-05-12T04:47:53.118Z,63.81
2023-05-12T04:48:53.092Z,64.94
2023-05-12T04:49:53.064Z,61.39
2023-05-12T04:50:53.060Z,62.36
2023-05-12T04:51:53.043Z,59.62
2023-05-12T04:52:53.037Z,60.91
2023-05-12T04:53:53.030Z,63.16
2023-05-12T04:54:53.037Z,60.10
2023-05-12T04:55:53.020Z,64.13
2023-05-12T04:56:53.008Z,59.62
2023-05-12T04:57:53.001Z,60.75
2023-05-12T04:58:52.993Z,60.91
2023-05-12T04:59:53.013Z,60.91
2023-05-12T05:00:53.016Z,65.74
2023-05-12T05:01:53.024Z,66.23
2023-05-12T05:02:53.133Z,64.61
2023-05-12T05:03:53.020Z,68.00
2023-05-12T05:04:52.967Z,65.26
2023-05-12T05:05:52.980Z,64.13
2023-05-12T05:06:52.953Z,60.91
2023-05-12T05:07:52.938Z,60.91
2023-05-12T05:08:52.924Z,67.03
2023-05-12T05:09:52.942Z,67.84
2023-05-12T05:10:52.925Z,65.90
2023-05-12T05:11:52.912Z,66.55
2023-05-12T05:12:52.895Z,65.42
2023-05-12T05:13:52.979Z,61.71
2023-05-12T05:14:52.910Z,60.10
2023-05-12T05:15:53.017Z,63.00
2023-05-12T05:16:52.893Z,60.59
2023-05-12T05:17:52.893Z,61.23
2023-05-12T05:18:53.025Z,61.71
2023-05-12T05:19:58.176Z,59.78
2023-05-12T05:20:58.513Z,59.94
2023-05-12T05:21:53.837Z,60.42
2023-05-12T05:22:52.844Z,62.36
2023-05-12T05:23:52.832Z,62.52
2023-05-12T05:24:52.801Z,61.23
2023-05-12T05:25:52.805Z,59.14
2023-05-12T05:26:52.815Z,61.55
2023-05-12T05:27:52.795Z,61.23
2023-05-12T05:28:52.791Z,62.20
2023-05-12T05:29:52.769Z,59.78
2023-05-12T05:30:52.786Z,61.39
2023-05-12T05:31:52.835Z,63.65
2023-05-12T05:32:52.782Z,59.62
2023-05-12T05:33:52.764Z,60.59
2023-05-12T05:34:52.732Z,60.91
2023-05-12T05:35:52.732Z,61.07
2023-05-12T05:36:52.757Z,60.26
2023-05-12T05:37:52.711Z,61.87
2023-05-12T05:38:52.696Z,60.26
2023-05-12T05:39:52.694Z,62.20
2023-05-12T05:40:54.271Z,61.23
2023-05-12T05:41:53.707Z,62.04
2023-05-12T05:42:52.679Z,60.42
2023-05-12T05:43:52.659Z,59.94
2023-05-12T05:44:52.669Z,60.26
2023-05-12T05:45:52.653Z,61.39
2023-05-12T05:46:52.692Z,59.78
2023-05-12T05:47:52.744Z,59.46
2023-05-12T05:48:52.670Z,60.10
2023-05-12T05:49:52.626Z,63.97
2023-05-12T05:50:52.643Z,59.62
2023-05-12T05:51:52.592Z,60.42
2023-05-12T05:52:52.609Z,59.30
2023-05-12T05:53:52.609Z,59.78
2023-05-12T05:54:52.579Z,61.87
2023-05-12T05:55:52.585Z,63.81
2023-05-12T05:56:52.568Z,60.59
2023-05-12T05:57:52.587Z,64.45
2023-05-12T05:58:53.438Z,59.78
2023-05-12T05:59:52.558Z,60.10
2023-05-12T06:00:52.549Z,63.16
2023-05-12T06:01:52.567Z,60.26
2023-05-12T06:02:52.571Z,59.62
2023-05-12T06:03:52.702Z,59.78
2023-05-12T06:04:52.517Z,59.30
2023-05-12T06:05:52.498Z,58.33
2023-05-12T06:06:52.557Z,58.65
2023-05-12T06:07:52.503Z,59.14
2023-05-12T06:08:52.490Z,59.94
2023-05-12T06:09:52.483Z,58.33
2023-05-12T06:10:52.460Z,60.42
2023-05-12T06:11:52.456Z,62.20
2023-05-12T06:12:52.466Z,61.39
2023-05-12T06:13:52.456Z,63.00
2023-05-12T06:14:52.451Z,59.14
2023-05-12T06:15:52.428Z,59.14
2023-05-12T06:16:52.456Z,60.10
2023-05-12T06:17:52.438Z,58.49
2023-05-12T06:18:52.446Z,58.97
2023-05-12T06:19:52.414Z,62.20
2023-05-12T06:20:52.411Z,60.26
2023-05-12T06:21:52.421Z,60.10
2023-05-12T06:22:52.431Z,58.97
2023-05-12T06:23:52.376Z,59.30
2023-05-12T06:24:52.434Z,60.42
2023-05-12T06:25:52.370Z,66.23
2023-05-12T06:26:52.362Z,68.32
2023-05-12T06:27:52.337Z,65.42
2023-05-12T06:28:53.343Z,69.61
2023-05-12T06:29:52.344Z,67.19
2023-05-12T06:30:52.334Z,67.68
2023-05-12T06:31:52.329Z,64.61
2023-05-12T06:32:52.361Z,70.09
2023-05-12T06:33:52.313Z,66.23
2023-05-12T06:34:52.302Z,68.96
2023-05-12T06:35:52.321Z,68.64
2023-05-12T06:36:53.789Z,67.51
2023-05-12T06:37:52.294Z,69.77
2023-05-12T06:38:52.269Z,65.74
2023-05-12T06:39:52.266Z,66.55
2023-05-12T06:40:52.272Z,65.90
2023-05-12T06:41:52.253Z,64.13
2023-05-12T06:42:52.273Z,65.42
2023-05-12T06:43:52.259Z,68.32
2023-05-12T06:44:52.244Z,65.58
2023-05-12T06:45:52.276Z,70.58
2023-05-12T06:46:52.229Z,68.48
2023-05-12T06:47:52.284Z,63.65
2023-05-12T06:48:52.223Z,67.03
2023-05-12T06:49:52.212Z,65.10
2023-05-12T06:50:52.201Z,63.81
2023-05-12T06:51:52.193Z,70.74
2023-05-12T06:52:52.198Z,63.16
2023-05-12T06:53:52.202Z,63.81
2023-05-12T06:54:52.295Z,70.90
2023-05-12T06:55:52.170Z,63.49
2023-05-12T06:56:52.193Z,68.00
2023-05-12T06:57:52.166Z,66.71
2023-05-12T06:58:52.164Z,64.29
2023-05-12T06:59:52.206Z,65.26
2023-05-12T07:00:52.138Z,60.10
2023-05-12T07:01:52.240Z,57.36
2023-05-12T07:02:52.168Z,58.33
2023-05-12T07:03:52.256Z,58.81
2023-05-12T07:04:52.114Z,59.94
2023-05-12T07:05:52.132Z,59.78
2023-05-12T07:06:52.125Z,57.85
2023-05-12T07:07:52.088Z,61.87
2023-05-12T07:08:52.075Z,61.55
2023-05-12T07:09:52.086Z,58.01
2023-05-12T07:10:52.101Z,55.43
2023-05-12T07:11:52.072Z,54.95
2023-05-12T07:12:52.052Z,59.62
2023-05-12T07:13:52.061Z,65.10
2023-05-12T07:14:52.056Z,57.52
2023-05-12T07:15:52.064Z,56.88
2023-05-12T07:16:52.014Z,57.69
2023-05-12T07:17:52.068Z,57.52
2023-05-12T07:18:52.088Z,63.16
2023-05-12T07:19:52.021Z,59.62
2023-05-12T07:20:52.000Z,57.52
2023-05-12T07:21:51.988Z,58.01
2023-05-12T07:22:52.012Z,59.78
2023-05-12T07:23:51.989Z,58.17
2023-05-12T07:24:52.006Z,55.27
2023-05-12T07:25:51.981Z,58.33
2023-05-12T07:26:52.079Z,56.40
2023-05-12T07:27:51.963Z,55.43
2023-05-12T07:28:51.952Z,55.91
2023-05-12T07:29:51.944Z,55.27
2023-05-12T07:30:51.970Z,58.17
2023-05-12T07:31:52.068Z,57.04
2023-05-12T07:32:52.001Z,57.52
2023-05-12T07:33:51.922Z,56.40
2023-05-12T07:34:51.904Z,60.59
2023-05-12T07:35:51.916Z,60.10
2023-05-12T07:36:51.928Z,59.78
2023-05-12T07:37:51.904Z,56.88
2023-05-12T07:38:51.877Z,57.04
2023-05-12T07:39:51.883Z,62.68
2023-05-12T07:40:51.864Z,55.75
2023-05-12T07:41:51.863Z,54.46
2023-05-12T07:42:52.002Z,57.52
2023-05-12T07:43:51.856Z,56.07
2023-05-12T07:44:51.841Z,58.65
2023-05-12T07:45:52.854Z,56.07
2023-05-12T07:46:51.926Z,53.33
2023-05-12T07:47:51.870Z,57.36
2023-05-12T07:48:51.840Z,57.36
2023-05-12T07:49:51.860Z,60.26
2023-05-12T07:50:51.803Z,55.27
2023-05-12T07:51:51.815Z,58.33
2023-05-12T07:52:51.812Z,56.56
2023-05-12T07:53:52.775Z,57.69
2023-05-12T07:54:51.789Z,55.27
2023-05-12T07:55:51.759Z,55.11
2023-05-12T07:56:51.773Z,52.85
2023-05-12T07:57:51.790Z,59.14
2023-05-12T07:58:51.834Z,58.49
2023-05-12T07:59:51.744Z,57.69
2023-05-12T08:00:51.727Z,56.72
2023-05-12T08:01:51.784Z,58.17
2023-05-12T08:02:52.023Z,57.04
2023-05-12T08:03:51.821Z,57.85
2023-05-12T08:04:51.710Z,57.04
2023-05-12T08:05:51.701Z,55.75
2023-05-12T08:06:51.702Z,58.81
2023-05-12T08:07:51.701Z,55.27
2023-05-12T08:08:51.688Z,53.98
2023-05-12T08:09:51.667Z,57.36
2023-05-12T08:10:51.661Z,56.40
2023-05-12T08:11:51.963Z,55.59
2023-05-12T08:12:51.658Z,57.52
2023-05-12T08:13:51.711Z,57.52
2023-05-12T08:14:51.646Z,57.69
2023-05-12T08:15:51.637Z,55.75
2023-05-12T08:16:51.672Z,57.20
2023-05-12T08:17:51.640Z,55.43
2023-05-12T08:18:51.709Z,56.40
2023-05-12T08:19:51.610Z,55.27
2023-05-12T08:20:51.598Z,53.82
2023-05-12T08:21:51.589Z,56.72
2023-05-12T08:22:51.584Z,55.91
2023-05-12T08:23:51.597Z,55.11
2023-05-12T08:24:51.589Z,53.82
2023-05-12T08:25:51.577Z,56.72
2023-05-12T08:26:51.568Z,53.66
2023-05-12T08:27:51.555Z,55.11
2023-05-12T08:28:51.590Z,53.50
2023-05-12T08:29:51.559Z,57.36
2023-05-12T08:30:51.816Z,60.10
2023-05-12T08:31:51.539Z,62.04
2023-05-12T08:32:51.562Z,61.07
2023-05-12T08:34:02.697Z,61.55
2023-05-12T08:34:53.524Z,55.11
2023-05-12T08:35:51.514Z,57.69
2023-05-12T08:36:51.740Z,56.88
2023-05-12T08:37:51.502Z,58.33
2023-05-12T08:38:51.488Z,54.95
2023-05-12T08:39:51.490Z,54.79
2023-05-12T08:40:51.472Z,57.69
2023-05-12T08:41:51.472Z,54.46
2023-05-12T08:42:51.475Z,56.40
2023-05-12T08:43:51.470Z,57.69
2023-05-12T08:44:51.454Z,58.97
2023-05-12T08:45:51.435Z,55.11
2023-05-12T08:46:51.645Z,57.20
2023-05-12T08:47:51.518Z,55.27
2023-05-12T08:48:51.465Z,70.42
2023-05-12T08:49:52.464Z,61.55
2023-05-12T08:50:52.399Z,56.24
2023-05-12T08:51:57.621Z,53.82
2023-05-12T08:52:53.408Z,54.46
2023-05-12T08:53:51.402Z,53.01
2023-05-12T08:54:55.985Z,54.30
2023-05-12T08:57:09.699Z,55.59
2023-05-12T08:57:52.348Z,54.30
2023-05-12T08:58:51.353Z,54.95
2023-05-12T08:59:51.355Z,57.04
2023-05-12T09:00:52.293Z,54.95
2023-05-12T09:01:52.279Z,55.27
2023-05-12T09:02:54.487Z,58.65
2023-05-12T09:03:52.371Z,53.33
2023-05-12T09:04:51.434Z,55.59
2023-05-12T09:05:51.294Z,54.79
2023-05-12T09:06:52.551Z,54.62
2023-05-12T09:07:51.273Z,54.30
2023-05-12T09:08:51.290Z,57.20
2023-05-12T09:09:51.277Z,54.30
2023-05-12T09:10:51.281Z,56.07
2023-05-12T09:11:51.266Z,57.69
2023-05-12T09:12:51.263Z,55.11
2023-05-12T09:13:51.270Z,52.85
2023-05-12T09:14:51.252Z,56.24
2023-05-12T09:15:51.265Z,55.11
2023-05-12T09:16:51.233Z,58.49
2023-05-12T09:17:51.254Z,55.11
2023-05-12T09:18:51.399Z,54.79
2023-05-12T09:19:51.225Z,55.43
2023-05-12T09:20:51.208Z,57.52
2023-05-12T09:21:51.200Z,53.33
2023-05-12T09:22:51.193Z,54.30
2023-05-12T09:23:51.184Z,54.79
2023-05-12T09:24:51.198Z,55.27
2023-05-12T09:25:51.167Z,58.65
2023-05-12T09:26:51.173Z,55.11
2023-05-12T09:27:51.169Z,56.40
2023-05-12T09:28:51.153Z,56.40
2023-05-12T09:29:58.506Z,54.79
2023-05-12T09:30:53.151Z,58.65
2023-05-12T09:31:51.182Z,55.75
2023-05-12T09:32:51.130Z,56.40
2023-05-12T09:33:51.121Z,54.62
2023-05-12T09:34:51.271Z,56.56
2023-05-12T09:35:51.132Z,59.46
2023-05-12T09:36:51.112Z,54.79
2023-05-12T09:37:51.099Z,59.94
2023-05-12T09:38:51.084Z,54.30
2023-05-12T09:39:51.070Z,54.79
2023-05-12T09:40:51.070Z,54.46
2023-05-12T09:41:51.088Z,55.27
2023-05-12T09:42:51.116Z,53.01
2023-05-12T09:43:51.044Z,54.14
2023-05-12T09:44:51.036Z,52.69
2023-05-12T09:45:51.074Z,53.33
2023-05-12T09:46:51.031Z,52.69
2023-05-12T09:47:51.013Z,52.69
2023-05-12T09:48:51.025Z,55.75
2023-05-12T09:49:51.025Z,54.30
2023-05-12T09:50:51.092Z,54.95
2023-05-12T09:51:50.996Z,53.66
2023-05-12T09:52:50.994Z,55.27
2023-05-12T09:53:50.976Z,53.50
2023-05-12T09:54:50.989Z,51.56
2023-05-12T09:55:50.964Z,53.98
2023-05-12T09:56:50.966Z,51.56
2023-05-12T09:57:50.962Z,50.60
2023-05-12T09:58:50.944Z,55.75
2023-05-12T09:59:50.954Z,69.93
2023-05-12T10:01:13.484Z,48.66
2023-05-12T10:01:52.969Z,52.21
2023-05-12T10:02:50.942Z,53.33
2023-05-12T10:03:50.929Z,55.59
2023-05-12T10:04:51.007Z,52.37
2023-05-12T10:05:50.917Z,58.49
2023-05-12T10:06:50.910Z,54.14
2023-05-12T10:07:50.897Z,51.56
2023-05-12T10:08:50.913Z,52.69
2023-05-12T10:09:50.885Z,53.17
2023-05-12T10:10:50.890Z,54.95
2023-05-12T10:11:53.506Z,49.95
2023-05-12T10:12:51.863Z,51.88
2023-05-12T10:13:50.881Z,50.60
2023-05-12T10:14:50.841Z,50.11
2023-05-12T10:15:51.852Z,51.40
2023-05-12T10:16:50.877Z,53.17
2023-05-12T10:17:53.105Z,52.85
2023-05-12T10:18:50.878Z,56.24
2023-05-12T10:19:50.813Z,51.72
2023-05-12T10:20:50.822Z,61.55
2023-05-12T10:21:50.825Z,52.37
2023-05-12T10:22:51.004Z,50.27
2023-05-12T10:23:50.845Z,50.76
2023-05-12T10:24:50.821Z,53.82
2023-05-12T10:25:50.781Z,55.59
2023-05-12T10:26:50.797Z,52.69
2023-05-12T10:27:50.765Z,53.66
2023-05-12T10:28:50.789Z,55.27
2023-05-12T10:29:51.549Z,53.33
2023-05-12T10:30:51.759Z,52.05
2023-05-12T10:31:50.834Z,53.50
2023-05-12T10:32:50.769Z,52.85
2023-05-12T10:33:50.749Z,52.05
2023-05-12T10:34:50.741Z,53.50
2023-05-12T10:35:50.726Z,54.46
2023-05-12T10:36:50.719Z,53.17
2023-05-12T10:37:50.722Z,52.37
2023-05-12T10:38:50.812Z,53.98
2023-05-12T10:39:50.722Z,52.37
2023-05-12T10:40:50.697Z,54.79
2023-05-12T10:41:51.698Z,56.24
2023-05-12T10:42:50.685Z,54.62
2023-05-12T10:43:50.725Z,56.56
2023-05-12T10:44:50.681Z,57.04
2023-05-12T10:45:50.669Z,56.56
2023-05-12T10:46:50.767Z,56.07
2023-05-12T10:47:50.699Z,56.72
2023-05-12T10:48:50.662Z,54.46
2023-05-12T10:49:50.657Z,56.24
2023-05-12T10:50:50.645Z,54.46
2023-05-12T10:51:50.655Z,64.94
2023-05-12T10:52:50.638Z,67.51
2023-05-12T10:53:54.333Z,59.14
2023-05-12T10:54:51.662Z,55.11
2023-05-12T10:55:50.885Z,53.98
2023-05-12T10:56:50.774Z,53.33
2023-05-12T10:57:50.869Z,54.62
2023-05-12T10:58:50.704Z,55.75
2023-05-12T10:59:51.592Z,56.40
2023-05-12T11:00:50.849Z,53.33
2023-05-12T11:01:50.827Z,56.88
2023-05-12T11:02:51.339Z,53.33
2023-05-12T11:03:52.663Z,55.59
2023-05-12T11:04:50.764Z,54.95
2023-05-12T11:05:50.704Z,55.59
2023-05-12T11:06:51.418Z,57.69
2023-05-12T11:07:50.874Z,54.62
2023-05-12T11:08:50.738Z,55.75
2023-05-12T11:09:58.684Z,54.62
2023-05-12T11:10:53.450Z,56.40
2023-05-12T11:11:50.510Z,54.95
2023-05-12T11:12:50.497Z,55.43
2023-05-12T11:13:50.501Z,53.82
2023-05-12T11:14:50.506Z,51.88
2023-05-12T11:15:50.527Z,54.79
2023-05-12T11:16:50.483Z,56.40
2023-05-12T11:17:50.537Z,54.30
2023-05-12T11:18:50.505Z,56.72
2023-05-12T11:19:50.472Z,53.33
2023-05-12T11:20:50.464Z,53.50
2023-05-12T11:21:50.464Z,54.95
2023-05-12T11:22:50.449Z,55.11
2023-05-12T11:23:50.421Z,55.11
2023-05-12T11:24:50.431Z,53.82
2023-05-12T11:25:50.485Z,55.11
2023-05-12T11:26:50.505Z,53.82
2023-05-12T11:27:50.944Z,52.85
2023-05-12T11:28:50.393Z,54.14
2023-05-12T11:29:50.391Z,56.07
2023-05-12T11:30:51.370Z,53.33
2023-05-12T11:31:50.431Z,55.27
2023-05-12T11:32:50.390Z,54.95
2023-05-12T11:33:58.528Z,54.14
2023-05-12T11:34:52.364Z,54.14
2023-05-12T11:35:50.860Z,55.43
2023-05-12T11:36:50.371Z,55.59
2023-05-12T11:37:50.360Z,54.79
2023-05-12T11:38:50.343Z,54.95
2023-05-12T11:39:50.332Z,54.30
2023-05-12T11:40:50.332Z,54.30
2023-05-12T11:41:54.579Z,51.72
2023-05-12T11:42:51.420Z,58.65
2023-05-12T11:43:50.349Z,54.30
2023-05-12T11:44:50.382Z,53.33
2023-05-12T11:45:50.353Z,53.82
2023-05-12T11:46:50.318Z,57.69
2023-05-12T11:47:50.343Z,59.62
2023-05-12T11:48:50.305Z,59.14
2023-05-12T11:49:50.298Z,58.49
2023-05-12T11:50:50.282Z,62.52
2023-05-12T11:51:50.267Z,53.98
2023-05-12T11:52:50.273Z,55.91
2023-05-12T11:53:50.271Z,56.88
2023-05-12T11:54:50.257Z,56.88
2023-05-12T11:55:50.344Z,54.79
2023-05-12T11:56:50.241Z,53.82
2023-05-12T11:57:50.232Z,58.97
2023-05-12T11:58:50.257Z,55.27
2023-05-12T11:59:50.248Z,54.79
2023-05-12T12:00:50.206Z,55.75
2023-05-12T12:01:50.201Z,54.62
2023-05-12T12:02:50.332Z,54.30
2023-05-12T12:03:50.494Z,56.56
2023-05-12T12:04:50.218Z,58.65
2023-05-12T12:05:50.184Z,57.69
2023-05-12T12:06:50.182Z,56.56
2023-05-12T12:07:50.166Z,56.88
2023-05-12T12:08:50.158Z,58.33
2023-05-12T12:09:50.158Z,53.50
2023-05-12T12:10:50.241Z,51.72
2023-05-12T12:11:50.187Z,53.98
2023-05-12T12:12:50.139Z,54.95
2023-05-12T12:13:50.127Z,55.43
2023-05-12T12:14:50.987Z,55.91
2023-05-12T12:15:50.156Z,57.52
2023-05-12T12:16:50.130Z,53.50
2023-05-12T12:17:50.128Z,54.79
2023-05-12T12:18:50.157Z,53.98
2023-05-12T12:19:50.102Z,53.33
2023-05-12T12:20:50.111Z,53.50
2023-05-12T12:21:50.081Z,53.33
2023-05-12T12:22:50.079Z,53.82
2023-05-12T12:23:51.645Z,57.85
2023-05-12T12:24:51.068Z,53.98
2023-05-12T12:25:50.057Z,53.50
2023-05-12T12:26:50.137Z,55.43
2023-05-12T12:27:50.092Z,54.62
2023-05-12T12:28:50.050Z,58.97
2023-05-12T12:29:50.031Z,58.49
2023-05-12T12:30:50.219Z,55.75
2023-05-12T12:31:50.096Z,53.98
2023-05-12T12:32:50.089Z,55.91
2023-05-12T12:33:50.023Z,54.14
2023-05-12T12:34:50.007Z,54.62
2023-05-12T12:35:50.038Z,58.49
2023-05-12T12:36:49.995Z,56.56
2023-05-12T12:37:50.030Z,54.30
2023-05-12T12:38:49.991Z,54.30
2023-05-12T12:39:49.973Z,54.79
2023-05-12T12:40:49.969Z,53.33
2023-05-12T12:41:49.960Z,53.66
2023-05-12T12:42:49.967Z,54.95
2023-05-12T12:43:49.952Z,56.24
2023-05-12T12:44:49.983Z,56.40
2023-05-12T12:45:49.945Z,58.81
2023-05-12T12:46:50.041Z,57.04
2023-05-12T12:47:50.124Z,55.91
2023-05-12T12:48:49.926Z,63.33
2023-05-12T12:49:49.911Z,54.95
2023-05-12T12:50:49.950Z,58.33
2023-05-12T12:51:49.897Z,59.14
2023-05-12T12:52:49.879Z,58.49
2023-05-12T12:53:49.879Z,53.82
2023-05-12T12:54:49.877Z,58.01